createdAt,value
2022-10-26T00:02:39.790Z,13.20
2022-10-26T00:07:48.079Z,13.20
2022-10-26T00:12:56.916Z,13.20
2022-10-26T00:18:05.781Z,13.20
2022-10-26T00:23:14.097Z,13.20
2022-10-26T00:28:22.378Z,13.21
2022-10-26T00:33:30.876Z,13.21
2022-10-26T00:38:40.003Z,13.21
2022-10-26T00:43:48.931Z,13.21
2022-10-26T00:49:01.807Z,13.21
2022-10-26T00:54:14.216Z,13.21
2022-10-26T00:59:23.590Z,13.21
2022-10-26T01:04:31.726Z,13.20
2022-10-26T01:09:40.222Z,13.20
2022-10-26T01:14:48.586Z,13.18
2022-10-26T01:20:36.057Z,13.17
2022-10-26T01:26:14.733Z,13.16
2022-10-26T01:31:31.197Z,13.15
2022-10-26T01:36:46.490Z,13.13
2022-10-26T01:41:58.099Z,13.11
2022-10-26T01:47:08.792Z,13.08
2022-10-26T01:52:17.578Z,13.05
2022-10-26T01:57:25.871Z,13.01
2022-10-26T02:02:50.390Z,12.97
2022-10-26T02:08:07.823Z,12.93
2022-10-26T02:13:23.536Z,12.91
2022-10-26T02:18:38.220Z,12.89
2022-10-26T02:23:49.854Z,12.86
2022-10-26T02:29:03.595Z,12.84
2022-10-26T02:34:15.415Z,12.82
2022-10-26T02:39:25.634Z,12.81
2022-10-26T02:44:39.526Z,12.79
2022-10-26T02:49:47.934Z,12.78
2022-10-26T02:55:03.222Z,12.76
2022-10-26T03:00:15.239Z,12.74
2022-10-26T03:05:26.506Z,12.73
2022-10-26T03:10:38.955Z,12.71
2022-10-26T03:15:47.053Z,12.70
2022-10-26T03:20:55.268Z,12.68
2022-10-26T03:26:03.816Z,12.67
2022-10-26T03:31:12.556Z,12.66
2022-10-26T03:36:19.096Z,12.64
2022-10-26T03:41:27.517Z,12.61
2022-10-26T03:46:36.069Z,12.61
2022-10-26T03:51:44.427Z,12.62
2022-10-26T03:56:55.181Z,12.62
2022-10-26T04:02:03.687Z,12.60
2022-10-26T04:07:11.752Z,12.57
2022-10-26T04:12:20.156Z,12.55
2022-10-26T04:17:28.906Z,12.53
2022-10-26T04:22:37.677Z,12.49
2022-10-26T04:27:46.079Z,12.46
2022-10-26T04:32:54.549Z,12.44
2022-10-26T04:38:07.970Z,12.41
2022-10-26T04:43:16.841Z,12.38
2022-10-26T04:53:40.277Z,12.34
2022-10-26T04:58:48.557Z,12.31
2022-10-26T05:03:57.271Z,12.29
2022-10-26T05:09:05.830Z,12.25
2022-10-26T05:14:14.805Z,12.23
2022-10-26T05:19:23.222Z,12.21
2022-10-26T05:24:31.575Z,12.19
2022-10-26T05:29:40.300Z,12.16
2022-10-26T05:34:49.001Z,12.15
2022-10-26T05:39:57.241Z,12.15
2022-10-26T05:45:05.556Z,12.13
2022-10-26T05:50:15.103Z,12.12
2022-10-26T05:55:25.257Z,12.13
2022-10-26T06:00:35.357Z,12.12
2022-10-26T06:05:54.047Z,12.13
2022-10-26T06:11:07.554Z,12.13
2022-10-26T06:16:33.941Z,12.12
2022-10-26T06:21:59.701Z,12.13
2022-10-26T06:27:19.554Z,12.16
2022-10-26T06:32:28.989Z,12.20
2022-10-26T06:37:39.465Z,12.23
2022-10-26T06:42:47.888Z,12.26
2022-10-26T06:48:05.075Z,12.30
2022-10-26T06:53:24.028Z,12.31
2022-10-26T06:58:35.380Z,12.33
2022-10-26T07:03:44.663Z,12.34
2022-10-26T07:08:53.512Z,12.35
2022-10-26T07:14:01.192Z,12.37
2022-10-26T07:19:09.710Z,12.38
2022-10-26T07:24:17.973Z,12.40
2022-10-26T07:29:27.030Z,12.41
2022-10-26T07:34:35.314Z,12.43
2022-10-26T07:39:43.662Z,12.43
2022-10-26T07:44:52.033Z,12.43
2022-10-26T07:50:00.170Z,12.43
2022-10-26T07:55:09.943Z,12.43
2022-10-26T08:00:19.893Z,12.42
2022-10-26T08:05:28.282Z,12.42
2022-10-26T08:10:36.828Z,12.40
2022-10-26T08:15:45.540Z,12.39
2022-10-26T08:20:56.375Z,12.39
2022-10-26T08:26:12.779Z,12.39
2022-10-26T08:31:21.642Z,12.40
2022-10-26T08:36:31.197Z,12.40
2022-10-26T08:41:43.387Z,12.39
2022-10-26T08:46:52.504Z,12.39
2022-10-26T08:52:03.882Z,12.39
2022-10-26T08:57:21.458Z,12.38
2022-10-26T09:03:20.828Z,12.39
2022-10-26T09:08:37.242Z,12.40
2022-10-26T09:14:00.522Z,12.41
2022-10-26T09:19:29.178Z,12.43
2022-10-26T09:24:41.008Z,12.45
2022-10-26T09:29:49.922Z,12.46
2022-10-26T09:35:01.514Z,12.49
2022-10-26T09:40:17.399Z,12.51
2022-10-26T09:45:30.837Z,12.52
2022-10-26T09:50:41.627Z,12.54
2022-10-26T09:55:51.373Z,12.56
2022-10-26T10:00:59.322Z,12.57
2022-10-26T10:06:21.639Z,12.60
2022-10-26T10:11:41.953Z,12.61
2022-10-26T10:16:57.315Z,12.64
2022-10-26T10:22:20.514Z,12.65
2022-10-26T10:27:29.041Z,12.67
2022-10-26T10:32:39.194Z,12.70
2022-10-26T10:37:48.224Z,12.75
2022-10-26T10:43:04.128Z,12.79
2022-10-26T10:48:20.852Z,12.84
2022-10-26T10:53:33.564Z,12.88
2022-10-26T10:58:52.385Z,12.92
2022-10-26T11:04:19.169Z,12.97
2022-10-26T11:09:30.196Z,13.02
2022-10-26T11:14:44.161Z,13.07
2022-10-26T11:19:57.818Z,13.12
2022-10-26T11:25:08.929Z,13.17
2022-10-26T11:30:22.064Z,13.23
2022-10-26T11:35:34.269Z,13.29
2022-10-26T11:40:44.287Z,13.32
2022-10-26T11:46:01.966Z,13.36
2022-10-26T11:51:19.691Z,13.39
2022-10-26T11:56:35.708Z,13.43
2022-10-26T12:01:43.117Z,13.46
2022-10-26T12:06:53.640Z,13.49
2022-10-26T12:12:06.484Z,13.52
2022-10-26T12:17:18.490Z,13.56
2022-10-26T12:22:35.834Z,13.59
2022-10-26T12:27:56.816Z,13.62
2022-10-26T12:33:05.787Z,13.67
2022-10-26T12:38:56.528Z,13.71
2022-10-26T12:44:33.045Z,13.75
2022-10-26T12:50:02.966Z,13.81
2022-10-26T12:55:43.436Z,13.86
2022-10-26T13:01:09.943Z,13.91
2022-10-26T13:06:36.063Z,13.94
2022-10-26T13:11:49.198Z,13.99
2022-10-26T13:16:57.415Z,14.03
2022-10-26T13:22:05.333Z,14.08
2022-10-26T13:27:27.747Z,14.11
2022-10-26T13:32:38.005Z,14.14
2022-10-26T13:37:50.016Z,14.17
2022-10-26T13:43:00.525Z,14.21
2022-10-26T13:48:15.194Z,14.27
2022-10-26T13:53:29.755Z,14.33
2022-10-26T13:58:43.639Z,14.38
2022-10-26T14:03:51.875Z,14.43
2022-10-26T14:09:02.051Z,14.46
2022-10-26T14:14:15.810Z,14.48
2022-10-26T14:19:27.793Z,14.50
2022-10-26T14:24:53.101Z,14.53
2022-10-26T14:30:21.582Z,14.55
2022-10-26T14:35:33.881Z,14.56
2022-10-26T14:40:41.719Z,14.58
2022-10-26T14:45:52.305Z,14.59
2022-10-26T14:51:08.938Z,14.59
2022-10-26T14:56:26.955Z,14.60
2022-10-26T15:01:49.994Z,14.60
2022-10-26T15:07:10.253Z,14.58
2022-10-26T15:12:24.980Z,14.54
2022-10-26T15:17:39.659Z,14.50
2022-10-26T15:22:51.406Z,14.46
2022-10-26T15:28:10.641Z,14.41
2022-10-26T15:33:24.075Z,14.34
2022-10-26T15:38:32.147Z,14.27
2022-10-26T15:43:39.757Z,14.19
2022-10-26T15:48:50.426Z,14.11
2022-10-26T15:53:58.958Z,14.02
2022-10-26T15:59:08.236Z,13.93
2022-10-26T16:04:16.089Z,13.82
2022-10-26T16:09:23.872Z,13.71
2022-10-26T16:14:33.515Z,13.60
2022-10-26T16:19:46.122Z,13.49
2022-10-26T16:24:53.591Z,13.38
2022-10-26T16:30:01.153Z,13.28
2022-10-26T16:35:09.721Z,13.19
2022-10-26T16:40:18.061Z,13.09
2022-10-26T16:45:25.908Z,13.01
2022-10-26T16:50:36.296Z,12.92
2022-10-26T16:55:44.525Z,12.82
2022-10-26T17:00:57.800Z,12.71
2022-10-26T17:06:08.440Z,12.61
2022-10-26T17:11:18.020Z,12.50
2022-10-26T17:16:26.512Z,12.38
2022-10-26T17:21:35.960Z,12.26
2022-10-26T17:26:43.623Z,12.14
2022-10-26T17:31:51.601Z,12.01
2022-10-26T17:36:58.963Z,11.88
2022-10-26T17:42:07.123Z,11.76
2022-10-26T17:47:14.531Z,11.66
2022-10-26T17:52:25.240Z,11.57
2022-10-26T17:57:33.758Z,11.49
2022-10-26T18:02:42.021Z,11.42
2022-10-26T18:07:49.763Z,11.37
2022-10-26T18:12:57.835Z,11.32
2022-10-26T18:18:05.363Z,11.28
2022-10-26T18:23:12.840Z,11.24
2022-10-26T18:28:20.353Z,11.19
2022-10-26T18:33:28.017Z,11.16
2022-10-26T18:38:35.939Z,11.12
2022-10-26T18:43:46.479Z,11.09
2022-10-26T18:48:54.496Z,11.07
2022-10-26T18:54:03.065Z,11.06
2022-10-26T18:59:10.977Z,11.03
2022-10-26T19:04:18.960Z,11.00
2022-10-26T19:09:27.003Z,10.98
2022-10-26T19:14:34.608Z,10.95
2022-10-26T19:19:42.190Z,10.92
2022-10-26T19:24:49.599Z,10.89
2022-10-26T19:29:56.982Z,10.84
2022-10-26T19:35:04.624Z,10.81
2022-10-26T19:40:13.932Z,10.78
2022-10-26T19:45:22.617Z,10.75
2022-10-26T19:50:30.264Z,10.73
2022-10-26T19:55:37.902Z,10.70
2022-10-26T20:00:45.807Z,10.68
2022-10-26T20:05:53.813Z,10.66
2022-10-26T20:11:01.690Z,10.64
2022-10-26T20:16:11.025Z,10.61
2022-10-26T20:21:19.159Z,10.58
2022-10-26T20:26:28.530Z,10.56
2022-10-26T20:31:36.886Z,10.53
2022-10-26T20:36:44.379Z,10.50
2022-10-26T20:41:53.466Z,10.46
2022-10-26T20:47:02.325Z,10.42
2022-10-26T20:52:22.169Z,10.38
2022-10-26T20:57:34.079Z,10.33
2022-10-26T21:02:41.860Z,10.29
2022-10-26T21:07:49.591Z,10.26
2022-10-26T21:12:57.101Z,10.24
2022-10-26T21:18:04.715Z,10.23
2022-10-26T21:23:12.266Z,10.21
2022-10-26T21:28:19.715Z,10.20
2022-10-26T21:33:32.614Z,10.19
2022-10-26T21:38:40.957Z,10.17
2022-10-26T21:43:59.145Z,10.16
2022-10-26T21:49:16.537Z,10.14
2022-10-26T21:54:24.303Z,10.12
2022-10-26T21:59:31.768Z,10.12
2022-10-26T22:04:39.347Z,10.10
2022-10-26T22:10:00.281Z,10.09
2022-10-26T22:15:14.746Z,10.09
2022-10-26T22:20:22.481Z,10.09
2022-10-26T22:25:29.858Z,10.08
2022-10-26T22:30:40.110Z,10.09
2022-10-26T22:35:46.869Z,10.10
2022-10-26T22:40:59.534Z,10.11
2022-10-26T22:46:08.982Z,10.13
2022-10-26T22:51:21.065Z,10.15
2022-10-26T22:56:30.267Z,10.17
2022-10-26T23:01:42.162Z,10.19
2022-10-26T23:06:50.159Z,10.18
2022-10-26T23:11:57.792Z,10.18
2022-10-26T23:17:06.585Z,10.17
2022-10-26T23:22:14.389Z,10.18
2022-10-26T23:27:21.706Z,10.17
2022-10-26T23:32:30.149Z,10.17
2022-10-26T23:37:37.982Z,10.16
2022-10-26T23:42:46.021Z,10.15
2022-10-26T23:47:54.051Z,10.14
2022-10-26T23:53:01.863Z,10.13
2022-10-26T23:58:09.322Z,10.12
